createdAt,value
2023-05-21T00:01:13.777Z,0
2023-05-21T00:03:11.916Z,0
2023-05-21T00:05:14.387Z,0
2023-05-21T00:07:10.837Z,0
2023-05-21T00:09:11.031Z,0.19
2023-05-21T00:11:10.951Z,0.19
2023-05-21T00:13:10.852Z,0.19
2023-05-21T00:15:11.421Z,0
2023-05-21T00:17:11.307Z,0
2023-05-21T00:19:10.836Z,0
2023-05-21T00:21:11.252Z,0.2
2023-05-21T00:23:10.480Z,0.2
2023-05-21T00:25:11.222Z,0.2
2023-05-21T00:27:11.172Z,0
2023-05-21T00:29:10.528Z,0
2023-05-21T00:31:11.333Z,0
2023-05-21T00:33:11.733Z,0
2023-05-21T00:35:11.321Z,0
2023-05-21T00:37:10.792Z,0
2023-05-21T00:39:10.304Z,0
2023-05-21T00:41:11.190Z,0
2023-05-21T00:43:10.791Z,0
2023-05-21T00:45:10.532Z,0
2023-05-21T00:47:11.322Z,0
2023-05-21T00:49:10.749Z,0
2023-05-21T00:51:10.477Z,0
2023-05-21T00:53:10.994Z,0
2023-05-21T00:55:10.761Z,0
2023-05-21T00:57:10.976Z,0.21
2023-05-21T00:59:10.938Z,0.21
2023-05-21T01:01:12.529Z,0.21
2023-05-21T01:03:12.253Z,0
2023-05-21T01:05:10.709Z,0
2023-05-21T01:07:11.056Z,0
2023-05-21T01:09:10.545Z,0.21
2023-05-21T01:11:10.573Z,0.21
2023-05-21T01:13:10.888Z,0.21
2023-05-21T01:15:10.617Z,0.22
2023-05-21T01:17:11.564Z,0.22
2023-05-21T01:19:11.522Z,0.22
2023-05-21T01:21:11.105Z,0.22
2023-05-21T01:23:10.311Z,0.22
2023-05-21T01:25:11.072Z,0.22
2023-05-21T01:27:10.698Z,0.22
2023-05-21T01:29:10.939Z,0.22
2023-05-21T01:31:11.189Z,0.22
2023-05-21T01:33:11.052Z,0
2023-05-21T01:35:11.377Z,0
2023-05-21T01:37:10.454Z,0
2023-05-21T01:39:11.433Z,0.21
2023-05-21T01:41:10.931Z,0.21
2023-05-21T01:43:11.387Z,0.21
2023-05-21T01:45:10.763Z,0.21
2023-05-21T01:47:10.776Z,0.21
2023-05-21T01:49:11.221Z,0.21
2023-05-21T01:51:11.101Z,0
2023-05-21T01:53:10.464Z,0
2023-05-21T01:55:10.943Z,0
2023-05-21T01:57:10.518Z,0
2023-05-21T01:59:11.665Z,0
2023-05-21T02:01:17.965Z,0
2023-05-21T02:03:11.981Z,0
2023-05-21T02:05:10.917Z,0
2023-05-21T02:07:11.063Z,0
2023-05-21T02:09:10.701Z,0
2023-05-21T02:11:11.524Z,0
2023-05-21T02:13:10.921Z,0
2023-05-21T02:15:10.414Z,0
2023-05-21T02:17:11.463Z,0
2023-05-21T02:19:11.140Z,0
2023-05-21T02:21:11.569Z,0.21
2023-05-21T02:23:10.952Z,0.21
2023-05-21T02:25:10.427Z,0.21
2023-05-21T02:27:11.181Z,0.22
2023-05-21T02:29:10.828Z,0.22
2023-05-21T02:31:10.533Z,0.22
2023-05-21T02:33:11.302Z,0
2023-05-21T02:35:10.923Z,0
2023-05-21T02:37:11.333Z,0
2023-05-21T02:39:11.178Z,0
2023-05-21T02:41:10.735Z,0
2023-05-21T02:43:10.294Z,0.21
2023-05-21T02:45:11.120Z,0.21
2023-05-21T02:47:11.115Z,0.21
2023-05-21T02:49:11.595Z,0
2023-05-21T02:51:11.147Z,0
2023-05-21T02:53:11.001Z,0
2023-05-21T02:55:10.679Z,0.21
2023-05-21T02:57:11.343Z,0.21
2023-05-21T02:59:10.786Z,0.21
2023-05-21T03:01:12.685Z,0
2023-05-21T03:03:11.978Z,0
2023-05-21T03:05:10.498Z,0
2023-05-21T03:07:11.146Z,0.21
2023-05-21T03:09:10.689Z,0.21
2023-05-21T03:11:11.453Z,0.21
2023-05-21T03:13:11.033Z,0.2
2023-05-21T03:15:10.713Z,0.2
2023-05-21T03:17:11.415Z,0.2
2023-05-21T03:19:11.087Z,0.2
2023-05-21T03:21:11.494Z,0.2
2023-05-21T03:23:11.069Z,0.2
2023-05-21T03:25:10.758Z,0.2
2023-05-21T03:27:11.221Z,0.2
2023-05-21T03:29:10.769Z,0.2
2023-05-21T03:31:10.468Z,0
2023-05-21T03:33:11.810Z,0
2023-05-21T03:35:10.691Z,0
2023-05-21T03:37:10.465Z,0.21
2023-05-21T03:39:11.710Z,0.21
2023-05-21T03:41:11.273Z,0.21
2023-05-21T03:43:10.868Z,0.21
2023-05-21T03:45:11.307Z,0.21
2023-05-21T03:47:11.225Z,0.21
2023-05-21T03:49:10.631Z,0.21
2023-05-21T03:51:11.429Z,0.21
2023-05-21T03:53:11.168Z,0.21
2023-05-21T03:55:10.754Z,0.21
2023-05-21T03:57:11.522Z,0.21
2023-05-21T03:59:11.031Z,0.21
2023-05-21T04:01:13.762Z,0.21
2023-05-21T04:03:12.182Z,0.21
2023-05-21T04:05:11.318Z,0.21
2023-05-21T04:07:10.646Z,0.21
2023-05-21T04:09:11.239Z,0.21
2023-05-21T04:11:11.092Z,0.21
2023-05-21T04:13:10.851Z,0
2023-05-21T04:15:11.137Z,0
2023-05-21T04:17:11.156Z,0
2023-05-21T04:19:10.749Z,0
2023-05-21T04:21:11.135Z,0
2023-05-21T04:23:10.744Z,0
2023-05-21T04:25:10.278Z,0
2023-05-21T04:27:10.933Z,0
2023-05-21T04:29:10.874Z,0
2023-05-21T04:31:11.613Z,0
2023-05-21T04:33:11.306Z,0
2023-05-21T04:35:10.623Z,0
2023-05-21T04:37:11.297Z,0.22
2023-05-21T04:39:13.220Z,0.22
2023-05-21T04:41:11.388Z,0.22
2023-05-21T04:43:10.952Z,0.22
2023-05-21T04:45:10.809Z,0.22
2023-05-21T04:47:10.757Z,0.22
2023-05-21T04:49:11.120Z,0
2023-05-21T04:51:10.794Z,0
2023-05-21T04:53:10.489Z,0
2023-05-21T04:55:11.050Z,0.22
2023-05-21T04:57:10.723Z,0.22
2023-05-21T04:59:11.637Z,0.22
2023-05-21T05:01:17.312Z,0
2023-05-21T05:03:11.929Z,0
2023-05-21T05:05:11.039Z,0
2023-05-21T05:07:10.439Z,0
2023-05-21T05:09:13.666Z,0
2023-05-21T05:11:11.080Z,0
2023-05-21T05:13:10.557Z,0
2023-05-21T05:15:11.439Z,0
2023-05-21T05:17:11.722Z,0
2023-05-21T05:19:10.795Z,0
2023-05-21T05:21:11.340Z,0
2023-05-21T05:23:11.761Z,0
2023-05-21T05:25:11.634Z,0
2023-05-21T05:27:11.179Z,0
2023-05-21T05:29:10.518Z,0
2023-05-21T05:31:11.937Z,0.22
2023-05-21T05:33:11.098Z,0.22
2023-05-21T05:35:13.074Z,0.22
2023-05-21T05:37:11.301Z,0
2023-05-21T05:39:10.674Z,0
2023-05-21T05:41:10.540Z,0
2023-05-21T05:43:11.239Z,0.22
2023-05-21T05:45:10.578Z,0.22
2023-05-21T05:47:11.664Z,0.22
2023-05-21T05:49:11.018Z,0.22
2023-05-21T05:51:10.568Z,0.22
2023-05-21T05:53:11.355Z,0.22
2023-05-21T05:55:10.940Z,0.22
2023-05-21T05:57:11.301Z,0.22
2023-05-21T05:59:10.875Z,0.22
2023-05-21T06:01:15.043Z,0
2023-05-21T06:03:12.480Z,0
2023-05-21T06:05:11.011Z,0
2023-05-21T06:07:10.729Z,0.24
2023-05-21T06:09:12.809Z,0.24
2023-05-21T06:11:10.922Z,0.24
2023-05-21T06:13:12.570Z,0.22
2023-05-21T06:15:10.895Z,0.22
2023-05-21T06:17:11.645Z,0.22
2023-05-21T06:19:11.292Z,0.24
2023-05-21T06:21:10.717Z,0.24
2023-05-21T06:23:11.784Z,0.24
2023-05-21T06:25:10.463Z,0
2023-05-21T06:27:11.003Z,0
2023-05-21T06:29:10.522Z,0
2023-05-21T06:31:10.648Z,0.24
2023-05-21T06:33:11.833Z,0.24
2023-05-21T06:35:11.014Z,0.24
2023-05-21T06:37:11.236Z,0
2023-05-21T06:39:11.045Z,0
2023-05-21T06:41:10.888Z,0
2023-05-21T06:43:11.280Z,0.23
2023-05-21T06:45:10.768Z,0.23
2023-05-21T06:47:10.619Z,0.23
2023-05-21T06:51:10.702Z,0
2023-05-21T06:53:11.218Z,0
2023-05-21T06:55:12.913Z,0
2023-05-21T06:57:11.175Z,0
2023-05-21T06:59:11.106Z,0
2023-05-21T07:01:14.870Z,0
2023-05-21T07:03:12.307Z,0
2023-05-21T07:05:10.955Z,0
2023-05-21T07:07:10.761Z,0
2023-05-21T07:09:11.134Z,0
2023-05-21T07:11:11.068Z,0
2023-05-21T07:13:10.487Z,0
2023-05-21T07:15:11.172Z,0
2023-05-21T07:17:10.874Z,0
2023-05-21T07:19:11.376Z,0
2023-05-21T07:21:10.888Z,0
2023-05-21T07:23:14.332Z,0
2023-05-21T07:25:10.624Z,0.23
2023-05-21T07:27:24.223Z,0.23
2023-05-21T07:29:12.888Z,0.23
2023-05-21T07:31:11.052Z,0
2023-05-21T07:33:10.803Z,0
2023-05-21T07:35:10.955Z,0
2023-05-21T07:37:10.876Z,0
2023-05-21T07:39:11.263Z,0
2023-05-21T07:41:10.953Z,0
2023-05-21T07:43:11.296Z,0.23
2023-05-21T07:45:10.740Z,0.23
2023-05-21T07:47:11.739Z,0.23
2023-05-21T07:49:10.887Z,0
2023-05-21T07:51:11.420Z,0
2023-05-21T07:53:11.074Z,0
2023-05-21T07:55:11.350Z,0
2023-05-21T07:57:10.818Z,0
2023-05-21T07:59:12.231Z,0
2023-05-21T08:01:14.597Z,0
2023-05-21T08:03:11.413Z,0
2023-05-21T08:05:15.967Z,0
2023-05-21T08:07:11.355Z,0
2023-05-21T08:09:10.671Z,0
2023-05-21T08:11:15.301Z,0
2023-05-21T08:13:10.675Z,0.22
2023-05-21T08:15:11.523Z,0.22
2023-05-21T08:17:11.602Z,0.22
2023-05-21T08:19:11.599Z,0
2023-05-21T08:21:11.013Z,0
2023-05-21T08:23:10.454Z,0
2023-05-21T08:25:11.034Z,0.13
2023-05-21T08:27:10.537Z,0.13
2023-05-21T08:29:11.041Z,0.13
2023-05-21T08:31:10.961Z,0.07
2023-05-21T08:33:12.140Z,0.07
2023-05-21T08:35:10.707Z,0.07
2023-05-21T08:37:10.554Z,0
2023-05-21T08:39:11.178Z,0
2023-05-21T08:41:10.910Z,0
2023-05-21T08:43:23.814Z,0
2023-05-21T08:45:10.897Z,0
2023-05-21T08:47:11.618Z,0
2023-05-21T08:49:10.906Z,0
2023-05-21T08:51:11.556Z,0
2023-05-21T08:53:19.781Z,0
2023-05-21T08:55:10.829Z,0
2023-05-21T08:57:11.052Z,0
2023-05-21T08:59:11.008Z,0
2023-05-21T09:01:14.978Z,0
2023-05-21T09:03:11.804Z,0
2023-05-21T09:05:29.717Z,0
2023-05-21T09:07:10.412Z,0
2023-05-21T09:09:10.692Z,0
2023-05-21T09:11:11.293Z,0
2023-05-21T09:13:10.759Z,0.03
2023-05-21T09:15:10.958Z,0.03
2023-05-21T09:17:11.321Z,0.03
2023-05-21T09:19:15.253Z,0.02
2023-05-21T09:21:11.060Z,0.02
2023-05-21T09:23:10.464Z,0.02
2023-05-21T09:25:11.195Z,0.01
2023-05-21T09:27:10.630Z,0.01
2023-05-21T09:29:11.332Z,0.01
2023-05-21T09:31:16.841Z,0
2023-05-21T09:33:11.718Z,0
2023-05-21T09:35:10.891Z,0
2023-05-21T09:37:23.618Z,0
2023-05-21T09:39:11.149Z,0
2023-05-21T09:41:11.156Z,0
2023-05-21T09:43:11.280Z,0
2023-05-21T09:45:10.620Z,0
2023-05-21T09:47:11.671Z,0
2023-05-21T09:49:11.221Z,0.01
2023-05-21T09:51:11.128Z,0.01
2023-05-21T09:53:11.128Z,0.01
2023-05-21T09:55:10.922Z,0
2023-05-21T09:57:10.902Z,0
2023-05-21T09:59:11.135Z,0
2023-05-21T10:01:14.736Z,0.01
2023-05-21T10:03:11.682Z,0.01
2023-05-21T10:05:11.116Z,0.01
2023-05-21T10:07:11.415Z,0
2023-05-21T10:09:11.197Z,0
2023-05-21T10:11:11.031Z,0
2023-05-21T10:13:10.472Z,0
2023-05-21T10:15:10.820Z,0
2023-05-21T10:17:11.420Z,0
2023-05-21T10:19:11.326Z,0
2023-05-21T10:21:11.052Z,0
2023-05-21T10:23:11.089Z,0
2023-05-21T10:25:10.638Z,0
2023-05-21T10:27:11.223Z,0
2023-05-21T10:29:10.937Z,0
2023-05-21T10:31:12.180Z,0
2023-05-21T10:33:11.537Z,0
2023-05-21T10:35:13.264Z,0
2023-05-21T10:37:11.199Z,0.01
2023-05-21T10:39:10.583Z,0.01
2023-05-21T10:41:11.911Z,0.01
2023-05-21T10:43:10.771Z,0
2023-05-21T10:45:10.486Z,0
2023-05-21T10:47:11.499Z,0
2023-05-21T10:49:10.892Z,0
2023-05-21T10:51:11.623Z,0
2023-05-21T10:53:10.864Z,0
2023-05-21T10:55:11.171Z,0.01
2023-05-21T10:57:11.000Z,0.01
2023-05-21T10:59:11.636Z,0.01
2023-05-21T11:01:14.100Z,0.01
2023-05-21T11:03:11.395Z,0.01
2023-05-21T11:05:10.383Z,0.01
2023-05-21T11:07:11.324Z,0
2023-05-21T11:09:10.811Z,0
2023-05-21T11:11:11.873Z,0
2023-05-21T11:13:10.777Z,0
2023-05-21T11:15:11.318Z,0
2023-05-21T11:17:10.951Z,0
2023-05-21T11:19:11.358Z,0.01
2023-05-21T11:21:10.920Z,0.01
2023-05-21T11:23:11.581Z,0.01
2023-05-21T11:25:14.185Z,0
2023-05-21T11:27:11.171Z,0
2023-05-21T11:29:10.805Z,0
2023-05-21T11:31:14.864Z,0.01
2023-05-21T11:33:11.269Z,0.01
2023-05-21T11:35:10.538Z,0.01
2023-05-21T11:37:10.905Z,0
2023-05-21T11:39:10.313Z,0
2023-05-21T11:41:11.659Z,0
2023-05-21T11:43:13.836Z,0
2023-05-21T11:45:10.435Z,0
2023-05-21T11:47:11.372Z,0
2023-05-21T11:49:13.964Z,0.01
2023-05-21T11:51:11.240Z,0.01
2023-05-21T11:53:10.966Z,0.01
2023-05-21T11:55:10.944Z,0
2023-05-21T11:57:10.828Z,0
2023-05-21T11:59:11.274Z,0
2023-05-21T12:01:17.485Z,0
2023-05-21T12:03:11.266Z,0
2023-05-21T12:05:13.296Z,0
2023-05-21T12:07:10.646Z,0.01
2023-05-21T12:09:11.099Z,0.01
2023-05-21T12:11:11.471Z,0.01
2023-05-21T12:13:28.890Z,0
2023-05-21T12:15:11.096Z,0
2023-05-21T12:17:10.817Z,0
2023-05-21T12:19:11.476Z,0.01
2023-05-21T12:21:12.585Z,0.01
2023-05-21T12:23:11.359Z,0.01
2023-05-21T12:25:10.892Z,0
2023-05-21T12:27:11.315Z,0
2023-05-21T12:29:10.969Z,0
2023-05-21T12:31:11.035Z,0.01
2023-05-21T12:33:11.690Z,0.01
2023-05-21T12:35:10.706Z,0.01
2023-05-21T12:37:10.604Z,0
2023-05-21T12:39:11.323Z,0
2023-05-21T12:41:10.912Z,0
2023-05-21T12:43:11.020Z,0
2023-05-21T12:45:11.500Z,0
2023-05-21T12:47:11.427Z,0
2023-05-21T12:49:11.112Z,0
2023-05-21T12:51:12.028Z,0
2023-05-21T12:53:11.078Z,0
2023-05-21T12:55:10.837Z,0
2023-05-21T12:57:11.109Z,0
2023-05-21T12:59:10.531Z,0
2023-05-21T13:01:16.996Z,0
2023-05-21T13:03:11.256Z,0
2023-05-21T13:05:11.744Z,0
2023-05-21T13:07:11.013Z,0
2023-05-21T13:09:10.360Z,0
2023-05-21T13:11:11.562Z,0
2023-05-21T13:13:11.108Z,0
2023-05-21T13:15:10.723Z,0
2023-05-21T13:17:11.626Z,0
2023-05-21T13:19:10.998Z,0
2023-05-21T13:21:11.006Z,0
2023-05-21T13:23:11.911Z,0
2023-05-21T13:25:10.663Z,0
2023-05-21T13:27:11.305Z,0
2023-05-21T13:29:10.732Z,0
2023-05-21T13:31:11.249Z,0
2023-05-21T13:33:12.654Z,0
2023-05-21T13:35:14.172Z,0
2023-05-21T13:37:10.639Z,0
2023-05-21T13:39:11.410Z,0
2023-05-21T13:41:13.597Z,0
2023-05-21T13:43:10.555Z,0
2023-05-21T13:45:10.992Z,0
2023-05-21T13:47:10.750Z,0
2023-05-21T13:49:11.086Z,0
2023-05-21T13:51:11.158Z,0
2023-05-21T13:53:10.990Z,0
2023-05-21T13:55:10.507Z,0
2023-05-21T13:57:11.257Z,0
2023-05-21T13:59:10.694Z,0
2023-05-21T14:01:15.629Z,0
2023-05-21T14:03:12.046Z,0
2023-05-21T14:05:14.061Z,0
2023-05-21T14:07:10.435Z,0
2023-05-21T14:09:10.748Z,0
2023-05-21T14:11:14.820Z,0
2023-05-21T14:13:27.222Z,0
2023-05-21T14:15:10.825Z,0
2023-05-21T14:17:11.788Z,0
2023-05-21T14:19:10.992Z,0
2023-05-21T14:21:11.423Z,0
2023-05-21T14:23:10.875Z,0
2023-05-21T14:25:11.281Z,0
2023-05-21T14:27:11.434Z,0
2023-05-21T14:29:10.473Z,0
2023-05-21T14:31:11.240Z,0
2023-05-21T14:33:11.000Z,0
2023-05-21T14:35:11.048Z,0
2023-05-21T14:37:10.708Z,0
2023-05-21T14:39:11.188Z,0
2023-05-21T14:41:11.174Z,0
2023-05-21T14:43:11.401Z,0
2023-05-21T14:45:29.978Z,0
2023-05-21T14:47:11.455Z,0
2023-05-21T14:49:11.266Z,0
2023-05-21T14:51:11.049Z,0
2023-05-21T14:53:10.570Z,0
2023-05-21T14:55:11.118Z,0
2023-05-21T14:57:10.726Z,0
2023-05-21T14:59:11.310Z,0
2023-05-21T15:01:14.064Z,0
2023-05-21T15:03:11.421Z,0
2023-05-21T15:05:11.930Z,0
2023-05-21T15:07:10.884Z,0
2023-05-21T15:09:11.340Z,0
2023-05-21T15:11:12.228Z,0
2023-05-21T15:13:10.643Z,0
2023-05-21T15:15:11.139Z,0
2023-05-21T15:17:11.369Z,0
2023-05-21T15:19:11.637Z,0
2023-05-21T15:21:11.147Z,0
2023-05-21T15:23:27.997Z,0
2023-05-21T15:25:11.075Z,0
2023-05-21T15:27:10.605Z,0
2023-05-21T15:29:11.009Z,0
2023-05-21T15:31:11.098Z,0
2023-05-21T15:33:11.256Z,0
2023-05-21T15:35:11.437Z,0
2023-05-21T15:37:10.617Z,0
2023-05-21T15:39:10.924Z,0
2023-05-21T15:41:13.393Z,0
2023-05-21T15:43:11.272Z,0
2023-05-21T15:45:10.883Z,0
2023-05-21T15:47:10.763Z,0
2023-05-21T15:49:11.014Z,0
2023-05-21T15:51:11.422Z,0
2023-05-21T15:53:11.934Z,0
2023-05-21T15:55:10.697Z,0
2023-05-21T15:57:11.071Z,0
2023-05-21T15:59:11.736Z,0
2023-05-21T16:01:14.477Z,0
2023-05-21T16:03:11.336Z,0
2023-05-21T16:05:10.870Z,0
2023-05-21T16:07:11.329Z,0
2023-05-21T16:09:10.517Z,0
2023-05-21T16:11:11.359Z,0
2023-05-21T16:13:10.717Z,0
2023-05-21T16:15:10.445Z,0
2023-05-21T16:17:11.127Z,0
2023-05-21T16:19:10.669Z,0
2023-05-21T16:21:11.110Z,0
2023-05-21T16:23:10.596Z,0
2023-05-21T16:25:10.945Z,0
2023-05-21T16:27:10.345Z,0
2023-05-21T16:29:13.951Z,0
2023-05-21T16:31:10.960Z,0
2023-05-21T16:33:12.317Z,0
2023-05-21T16:35:10.742Z,0
2023-05-21T16:37:10.506Z,0
2023-05-21T16:39:10.863Z,0
2023-05-21T16:41:10.691Z,0
2023-05-21T16:43:13.760Z,0
2023-05-21T16:45:10.555Z,0
2023-05-21T16:47:11.630Z,0
2023-05-21T16:49:12.656Z,0
2023-05-21T16:51:11.589Z,0
2023-05-21T16:53:11.144Z,0
2023-05-21T16:55:10.613Z,0
2023-05-21T16:57:10.971Z,0
2023-05-21T16:59:10.868Z,0
2023-05-21T17:01:14.858Z,0
2023-05-21T17:03:11.850Z,0
2023-05-21T17:05:11.512Z,0
2023-05-21T17:07:11.373Z,0
2023-05-21T17:09:10.672Z,0
2023-05-21T17:11:11.418Z,0
2023-05-21T17:13:22.822Z,0
2023-05-21T17:15:20.802Z,0
2023-05-21T17:17:11.813Z,0
2023-05-21T17:19:10.992Z,0
2023-05-21T17:21:11.279Z,0
2023-05-21T17:23:11.002Z,0
2023-05-21T17:25:11.224Z,0
2023-05-21T17:27:11.058Z,0
2023-05-21T17:29:10.709Z,0
2023-05-21T17:31:12.778Z,0
2023-05-21T17:33:10.805Z,0
2023-05-21T17:35:11.099Z,0
2023-05-21T17:37:11.057Z,0
2023-05-21T17:39:10.620Z,0
2023-05-21T17:41:11.465Z,0
2023-05-21T17:43:11.123Z,0
2023-05-21T17:45:10.724Z,0
2023-05-21T17:47:11.446Z,0
2023-05-21T17:49:10.821Z,0
2023-05-21T17:51:11.235Z,0
2023-05-21T17:53:10.725Z,0
2023-05-21T17:55:10.380Z,0
2023-05-21T17:57:10.950Z,0
2023-05-21T17:59:10.396Z,0
2023-05-21T18:01:14.671Z,0
2023-05-21T18:03:10.793Z,0
2023-05-21T18:05:11.566Z,0
2023-05-21T18:07:10.699Z,0.01
2023-05-21T18:09:11.102Z,0.01
2023-05-21T18:11:10.897Z,0.01
2023-05-21T18:13:11.130Z,0
2023-05-21T18:15:11.061Z,0
2023-05-21T18:17:11.594Z,0
2023-05-21T18:19:11.290Z,0
2023-05-21T18:21:11.129Z,0
2023-05-21T18:23:11.204Z,0
2023-05-21T18:25:10.872Z,0
2023-05-21T18:27:11.327Z,0
2023-05-21T18:29:10.710Z,0
2023-05-21T18:31:10.766Z,0
2023-05-21T18:33:11.776Z,0
2023-05-21T18:35:13.032Z,0
2023-05-21T18:37:11.208Z,0
2023-05-21T18:39:10.726Z,0
2023-05-21T18:41:10.937Z,0
2023-05-21T18:43:22.668Z,0
2023-05-21T18:45:10.663Z,0
2023-05-21T18:47:11.585Z,0
2023-05-21T18:49:10.859Z,0
2023-05-21T18:51:11.813Z,0
2023-05-21T18:53:11.059Z,0
2023-05-21T18:55:10.503Z,0
2023-05-21T18:57:10.832Z,0
2023-05-21T18:59:10.606Z,0
2023-05-21T19:01:16.668Z,0
2023-05-21T19:03:11.449Z,0
2023-05-21T19:05:10.789Z,0
2023-05-21T19:07:10.507Z,0
2023-05-21T19:09:10.790Z,0
2023-05-21T19:11:12.340Z,0
2023-05-21T19:13:10.379Z,0
2023-05-21T19:15:10.884Z,0
2023-05-21T19:17:11.964Z,0
2023-05-21T19:19:11.076Z,0
2023-05-21T19:21:11.864Z,0
2023-05-21T19:23:10.937Z,0
2023-05-21T19:25:14.275Z,0
2023-05-21T19:27:10.974Z,0
2023-05-21T19:29:10.999Z,0
2023-05-21T19:31:11.448Z,0
2023-05-21T19:33:11.282Z,0
2023-05-21T19:35:10.975Z,0
2023-05-21T19:37:27.577Z,0
2023-05-21T19:39:14.391Z,0
2023-05-21T19:41:10.777Z,0
2023-05-21T19:43:11.008Z,0
2023-05-21T19:45:10.611Z,0
2023-05-21T19:47:14.683Z,0
2023-05-21T19:49:10.878Z,0
2023-05-21T19:51:11.804Z,0.01
2023-05-21T19:53:10.731Z,0.01
2023-05-21T19:55:10.507Z,0.01
2023-05-21T19:57:12.574Z,0
2023-05-21T19:59:10.855Z,0
2023-05-21T20:01:14.602Z,0.01
2023-05-21T20:03:13.273Z,0
2023-05-21T20:05:11.282Z,0
2023-05-21T20:07:11.206Z,0
2023-05-21T20:09:10.851Z,0
2023-05-21T20:11:14.766Z,0
2023-05-21T20:13:10.636Z,0
2023-05-21T20:15:11.269Z,0
2023-05-21T20:17:11.672Z,0
2023-05-21T20:19:11.006Z,0
2023-05-21T20:21:11.660Z,0
2023-05-21T20:23:10.683Z,0
2023-05-21T20:25:11.407Z,0
2023-05-21T20:27:10.751Z,0.01
2023-05-21T20:29:11.394Z,0.01
2023-05-21T20:31:11.752Z,0
2023-05-21T20:33:10.991Z,0
2023-05-21T20:35:26.531Z,0
2023-05-21T20:37:10.694Z,0
2023-05-21T20:39:11.157Z,0.01
2023-05-21T20:41:12.852Z,0.01
2023-05-21T20:43:10.647Z,0.02
2023-05-21T20:45:11.254Z,0
2023-05-21T20:47:11.185Z,0
2023-05-21T20:49:10.519Z,0
2023-05-21T20:51:11.892Z,0
2023-05-21T20:53:10.946Z,0
2023-05-21T20:55:10.552Z,0.03
2023-05-21T20:57:27.709Z,0.03
2023-05-21T20:59:11.491Z,0.03
2023-05-21T21:01:16.794Z,0
2023-05-21T21:03:11.496Z,0
2023-05-21T21:05:10.857Z,0
2023-05-21T21:07:11.171Z,0
2023-05-21T21:09:10.557Z,0
2023-05-21T21:11:11.952Z,0
2023-05-21T21:13:30.458Z,0
2023-05-21T21:15:10.436Z,0
2023-05-21T21:17:11.390Z,0
2023-05-21T21:19:10.825Z,0.08
2023-05-21T21:21:11.314Z,0.08
2023-05-21T21:23:10.881Z,0.08
2023-05-21T21:25:10.564Z,0.09
2023-05-21T21:27:10.967Z,0
2023-05-21T21:29:10.572Z,0
2023-05-21T21:31:10.928Z,0.1
2023-05-21T21:33:11.587Z,0
2023-05-21T21:35:11.217Z,0
2023-05-21T21:37:10.863Z,0
2023-05-21T21:39:11.082Z,0
2023-05-21T21:41:11.324Z,0
2023-05-21T21:43:10.302Z,0
2023-05-21T21:45:11.042Z,0
2023-05-21T21:47:10.825Z,0
2023-05-21T21:49:11.233Z,0
2023-05-21T21:51:11.190Z,0.12
2023-05-21T21:53:10.607Z,0.12
2023-05-21T21:55:11.670Z,0
2023-05-21T21:57:10.733Z,0.12
2023-05-21T21:59:11.272Z,0.12
2023-05-21T22:01:23.992Z,0
2023-05-21T22:03:12.967Z,0.13
2023-05-21T22:05:10.613Z,0.13
2023-05-21T22:07:11.015Z,0.13
2023-05-21T22:09:10.889Z,0
2023-05-21T22:11:11.747Z,0
2023-05-21T22:13:10.955Z,0
2023-05-21T22:15:10.540Z,0
2023-05-21T22:17:11.687Z,0
2023-05-21T22:19:26.149Z,0.13
2023-05-21T22:21:11.687Z,0
2023-05-21T22:23:11.022Z,0
2023-05-21T22:25:28.178Z,0.14
2023-05-21T22:27:11.106Z,0
2023-05-21T22:29:10.977Z,0
2023-05-21T22:31:10.928Z,0
2023-05-21T22:33:10.994Z,0
2023-05-21T22:35:10.687Z,0
2023-05-21T22:37:11.202Z,0.14
2023-05-21T22:39:10.789Z,0.14
2023-05-21T22:41:12.024Z,0.14
2023-05-21T22:43:11.183Z,0.15
2023-05-21T22:45:10.701Z,0.15
2023-05-21T22:47:11.546Z,0.15
2023-05-21T22:49:11.034Z,0
2023-05-21T22:51:11.630Z,0
2023-05-21T22:53:11.078Z,0
2023-05-21T22:55:11.006Z,0
2023-05-21T22:57:11.264Z,0
2023-05-21T22:59:11.052Z,0
2023-05-21T23:01:14.706Z,0
2023-05-21T23:03:10.435Z,0
2023-05-21T23:05:29.182Z,0
2023-05-21T23:07:11.917Z,0.18
2023-05-21T23:09:11.428Z,0
2023-05-21T23:11:12.086Z,0
2023-05-21T23:13:10.992Z,0
2023-05-21T23:15:10.586Z,0
2023-05-21T23:17:11.647Z,0
2023-05-21T23:19:11.287Z,0.19
2023-05-21T23:21:12.252Z,0.19
2023-05-21T23:23:11.052Z,0.19
2023-05-21T23:25:10.409Z,0
2023-05-21T23:27:11.126Z,0.19
2023-05-21T23:29:10.581Z,0.19
2023-05-21T23:31:11.364Z,0.19
2023-05-21T23:33:10.890Z,0
2023-05-21T23:35:11.155Z,0
2023-05-21T23:37:12.237Z,0
2023-05-21T23:39:11.277Z,0
2023-05-21T23:41:11.110Z,0
2023-05-21T23:43:10.404Z,0
2023-05-21T23:45:11.338Z,0.19
2023-05-21T23:47:11.453Z,0.19
2023-05-21T23:49:10.889Z,0
2023-05-21T23:51:11.374Z,0
2023-05-21T23:53:10.918Z,0
2023-05-21T23:55:11.542Z,0.19
2023-05-21T23:57:10.873Z,0
2023-05-21T23:59:11.334Z,0
